sensor_id;sensor_type;location;lat;lon;timestamp;pressure;altitude;pressure_sealevel;temperature
50206;BMP280;36098;48.390;10.856;2022-10-31T00:00:50;96507.59;;;25.54
50206;BMP280;36098;48.390;10.856;2022-10-31T00:03:16;96523.47;;;25.54
50206;BMP280;36098;48.390;10.856;2022-10-31T00:05:50;96521.34;;;25.51
50206;BMP280;36098;48.390;10.856;2022-10-31T00:08:16;96520.28;;;25.52
50206;BMP280;36098;48.390;10.856;2022-10-31T00:10:43;96518.97;;;25.49
50206;BMP280;36098;48.390;10.856;2022-10-31T00:13:09;96518.47;;;25.47
50206;BMP280;36098;48.390;10.856;2022-10-31T00:15:35;96521.38;;;25.46
50206;BMP280;36098;48.390;10.856;2022-10-31T00:18:02;96525.09;;;25.45
50206;BMP280;36098;48.390;10.856;2022-10-31T00:20:27;96533.00;;;25.45
50206;BMP280;36098;48.390;10.856;2022-10-31T00:22:53;96528.78;;;25.44
50206;BMP280;36098;48.390;10.856;2022-10-31T00:25:18;96515.56;;;25.44
50206;BMP280;36098;48.390;10.856;2022-10-31T00:27:45;96514.00;;;25.43
50206;BMP280;36098;48.390;10.856;2022-10-31T00:30:11;96525.88;;;25.40
50206;BMP280;36098;48.390;10.856;2022-10-31T00:32:36;96510.31;;;25.39
50206;BMP280;36098;48.390;10.856;2022-10-31T00:35:01;96523.53;;;25.39
50206;BMP280;36098;48.390;10.856;2022-10-31T00:37:26;96522.47;;;25.40
50206;BMP280;36098;48.390;10.856;2022-10-31T00:39:52;96524.59;;;25.38
50206;BMP280;36098;48.390;10.856;2022-10-31T00:42:17;96510.59;;;25.37
50206;BMP280;36098;48.390;10.856;2022-10-31T00:44:42;96526.72;;;25.36
50206;BMP280;36098;48.390;10.856;2022-10-31T00:47:08;96530.16;;;25.36
50206;BMP280;36098;48.390;10.856;2022-10-31T00:49:33;96524.34;;;25.34
50206;BMP280;36098;48.390;10.856;2022-10-31T00:51:58;96527.78;;;25.35
50206;BMP280;36098;48.390;10.856;2022-10-31T00:54:23;96528.88;;;25.34
50206;BMP280;36098;48.390;10.856;2022-10-31T00:56:49;96532.03;;;25.31
50206;BMP280;36098;48.390;10.856;2022-10-31T00:59:14;96535.72;;;25.30
50206;BMP280;36098;48.390;10.856;2022-10-31T01:01:39;96535.72;;;25.30
50206;BMP280;36098;48.390;10.856;2022-10-31T01:04:04;96541.03;;;25.30
50206;BMP280;36098;48.390;10.856;2022-10-31T01:06:30;96542.59;;;25.31
50206;BMP280;36098;48.390;10.856;2022-10-31T01:08:55;96536.28;;;25.27
50206;BMP280;36098;48.390;10.856;2022-10-31T01:11:22;96540.25;;;25.29
50206;BMP280;36098;48.390;10.856;2022-10-31T01:13:51;96540.00;;;25.26
50206;BMP280;36098;48.390;10.856;2022-10-31T01:16:18;96540.00;;;25.26
50206;BMP280;36098;48.390;10.856;2022-10-31T01:18:44;96543.44;;;25.26
50206;BMP280;36098;48.390;10.856;2022-10-31T01:21:16;96540.00;;;25.26
50206;BMP280;36098;48.390;10.856;2022-10-31T01:23:41;96543.69;;;25.25
50206;BMP280;36098;48.390;10.856;2022-10-31T01:26:08;96540.53;;;25.23
50206;BMP280;36098;48.390;10.856;2022-10-31T01:28:36;96542.13;;;25.24
50206;BMP280;36098;48.390;10.856;2022-10-31T01:31:04;96545.81;;;25.23
50206;BMP280;36098;48.390;10.856;2022-10-31T01:33:30;96538.97;;;25.22
50206;BMP280;36098;48.390;10.856;2022-10-31T01:35:55;96539.22;;;25.20
50206;BMP280;36098;48.390;10.856;2022-10-31T01:38:20;96537.38;;;25.21
50206;BMP280;36098;48.390;10.856;2022-10-31T01:40:46;96542.66;;;25.21
50206;BMP280;36098;48.390;10.856;2022-10-31T01:43:14;96541.84;;;25.20
50206;BMP280;36098;48.390;10.856;2022-10-31T01:45:41;96543.72;;;25.20
50206;BMP280;36098;48.390;10.856;2022-10-31T01:48:16;96541.59;;;25.17
50206;BMP280;36098;48.390;10.856;2022-10-31T01:50:44;96547.66;;;25.17
50206;BMP280;36098;48.390;10.856;2022-10-31T01:53:10;96551.38;;;25.16
50206;BMP280;36098;48.390;10.856;2022-10-31T01:55:41;96553.78;;;25.18
50206;BMP280;36098;48.390;10.856;2022-10-31T01:58:13;96551.66;;;25.15
50206;BMP280;36098;48.390;10.856;2022-10-31T02:00:39;96550.59;;;25.16
50206;BMP280;36098;48.390;10.856;2022-10-31T02:03:05;96542.16;;;25.14
50206;BMP280;36098;48.390;10.856;2022-10-31T02:05:30;96540.53;;;25.13
50206;BMP280;36098;48.390;10.856;2022-10-31T02:08:13;96536.06;;;25.13
50206;BMP280;36098;48.390;10.856;2022-10-31T02:10:42;96538.97;;;25.12
50206;BMP280;36098;48.390;10.856;2022-10-31T02:13:08;96532.91;;;25.12
50206;BMP280;36098;48.390;10.856;2022-10-31T02:18:00;96535.81;;;25.10
50206;BMP280;36098;48.390;10.856;2022-10-31T02:20:32;96524.72;;;25.08
50206;BMP280;36098;48.390;10.856;2022-10-31T02:26:07;96534.75;;;25.06
50206;BMP280;36098;48.390;10.856;2022-10-31T02:31:31;96533.19;;;25.05
50206;BMP280;36098;48.390;10.856;2022-10-31T02:34:02;96526.59;;;25.03
50206;BMP280;36098;48.390;10.856;2022-10-31T02:36:46;96530.81;;;25.04
50206;BMP280;36098;48.390;10.856;2022-10-31T02:39:30;96525.50;;;25.04
50206;BMP280;36098;48.390;10.856;2022-10-31T02:42:08;96524.75;;;25.03
50206;BMP280;36098;48.390;10.856;2022-10-31T02:45:03;96519.47;;;25.03
50206;BMP280;36098;48.390;10.856;2022-10-31T02:47:34;96522.09;;;25.03
50206;BMP280;36098;48.390;10.856;2022-10-31T02:50:07;96529.75;;;25.00
50206;BMP280;36098;48.390;10.856;2022-10-31T02:52:34;96530.28;;;25.02
50206;BMP280;36098;48.390;10.856;2022-10-31T02:55:10;96530.84;;;24.99
50206;BMP280;36098;48.390;10.856;2022-10-31T02:57:36;96529.00;;;24.99
50206;BMP280;36098;48.390;10.856;2022-10-31T03:00:06;96532.69;;;24.98
50206;BMP280;36098;48.390;10.856;2022-10-31T03:05:31;96526.91;;;24.96
50206;BMP280;36098;48.390;10.856;2022-10-31T03:08:06;96531.13;;;24.97
50206;BMP280;36098;48.390;10.856;2022-10-31T03:11:07;96535.88;;;24.95
50206;BMP280;36098;48.390;10.856;2022-10-31T03:13:38;96532.44;;;24.95
50206;BMP280;36098;48.390;10.856;2022-10-31T03:16:17;96527.16;;;24.95
50206;BMP280;36098;48.390;10.856;2022-10-31T03:18:52;96529.28;;;24.93
50206;BMP280;36098;48.390;10.856;2022-10-31T03:23:56;96524.78;;;24.93
50206;BMP280;36098;48.390;10.856;2022-10-31T03:26:23;96531.13;;;24.92
50206;BMP280;36098;48.390;10.856;2022-10-31T03:28:53;96524.78;;;24.93
50206;BMP280;36098;48.390;10.856;2022-10-31T03:31:24;96532.19;;;24.91
50206;BMP280;36098;48.390;10.856;2022-10-31T03:33:51;96533.53;;;24.89
50206;BMP280;36098;48.390;10.856;2022-10-31T03:36:17;96529.56;;;24.86
50206;BMP280;36098;48.390;10.856;2022-10-31T03:38:45;96529.81;;;24.90
50206;BMP280;36098;48.390;10.856;2022-10-31T03:41:13;96532.72;;;24.88
50206;BMP280;36098;48.390;10.856;2022-10-31T03:43:45;96531.13;;;24.87
50206;BMP280;36098;48.390;10.856;2022-10-31T03:46:12;96531.13;;;24.87
50206;BMP280;36098;48.390;10.856;2022-10-31T03:48:37;96525.84;;;24.87
50206;BMP280;36098;48.390;10.856;2022-10-31T03:51:14;96523.50;;;24.86
50206;BMP280;36098;48.390;10.856;2022-10-31T03:53:45;96529.56;;;24.86
50206;BMP280;36098;48.390;10.856;2022-10-31T03:56:22;96522.44;;;24.87
50206;BMP280;36098;48.390;10.856;2022-10-31T03:58:58;96515.84;;;24.84
50206;BMP280;36098;48.390;10.856;2022-10-31T04:01:25;96518.47;;;24.84
50206;BMP280;36098;48.390;10.856;2022-10-31T04:03:52;96523.75;;;24.84
50206;BMP280;36098;48.390;10.856;2022-10-31T04:06:18;96514.25;;;24.83
50206;BMP280;36098;48.390;10.856;2022-10-31T04:08:52;96517.66;;;24.84
50206;BMP280;36098;48.390;10.856;2022-10-31T04:11:21;96511.63;;;24.83
50206;BMP280;36098;48.390;10.856;2022-10-31T04:13:49;96513.44;;;24.83
50206;BMP280;36098;48.390;10.856;2022-10-31T04:16:15;96515.56;;;24.81
50206;BMP280;36098;48.390;10.856;2022-10-31T04:18:41;96521.66;;;24.81
50206;BMP280;36098;48.390;10.856;2022-10-31T04:21:07;96514.50;;;24.82
50206;BMP280;36098;48.390;10.856;2022-10-31T04:23:34;96524.31;;;24.81
50206;BMP280;36098;48.390;10.856;2022-10-31T04:26:00;96514.28;;;24.78
50206;BMP280;36098;48.390;10.856;2022-10-31T04:28:25;96517.19;;;24.77
50206;BMP280;36098;48.390;10.856;2022-10-31T04:30:51;96512.97;;;24.76
50206;BMP280;36098;48.390;10.856;2022-10-31T04:33:17;96516.41;;;24.76
50206;BMP280;36098;48.390;10.856;2022-10-31T04:35:42;96519.81;;;24.77
50206;BMP280;36098;48.390;10.856;2022-10-31T04:38:08;96517.47;;;24.75
50206;BMP280;36098;48.390;10.856;2022-10-31T04:40:33;96512.97;;;24.76
50206;BMP280;36098;48.390;10.856;2022-10-31T04:42:58;96519.56;;;24.73
50206;BMP280;36098;48.390;10.856;2022-10-31T04:45:24;96513.50;;;24.73
50206;BMP280;36098;48.390;10.856;2022-10-31T04:47:49;96509.00;;;24.73
50206;BMP280;36098;48.390;10.856;2022-10-31T04:50:14;96501.34;;;24.72
50206;BMP280;36098;48.390;10.856;2022-10-31T04:52:43;96504.25;;;24.70
50206;BMP280;36098;48.390;10.856;2022-10-31T04:55:10;96503.19;;;24.71
50206;BMP280;36098;48.390;10.856;2022-10-31T04:57:43;96503.19;;;24.71
50206;BMP280;36098;48.390;10.856;2022-10-31T05:00:10;96504.00;;;24.72
50206;BMP280;36098;48.390;10.856;2022-10-31T05:02:43;96502.69;;;24.69
50206;BMP280;36098;48.390;10.856;2022-10-31T05:05:08;96509.53;;;24.70
50206;BMP280;36098;48.390;10.856;2022-10-31T05:07:38;96509.81;;;24.69
50206;BMP280;36098;48.390;10.856;2022-10-31T05:10:03;96510.09;;;24.67
50206;BMP280;36098;48.390;10.856;2022-10-31T05:12:28;96514.31;;;24.68
50206;BMP280;36098;48.390;10.856;2022-10-31T05:14:54;96514.31;;;24.68
50206;BMP280;36098;48.390;10.856;2022-10-31T05:17:19;96511.66;;;24.68
50206;BMP280;36098;48.390;10.856;2022-10-31T05:19:44;96506.66;;;24.67
50206;BMP280;36098;48.390;10.856;2022-10-31T05:22:10;96510.63;;;24.64
50206;BMP280;36098;48.390;10.856;2022-10-31T05:24:35;96504.53;;;24.64
50206;BMP280;36098;48.390;10.856;2022-10-31T05:27:01;96503.75;;;24.63
50206;BMP280;36098;48.390;10.856;2022-10-31T05:29:26;96503.50;;;24.50
50206;BMP280;36098;48.390;10.856;2022-10-31T05:31:51;96499.53;;;24.47
50206;BMP280;36098;48.390;10.856;2022-10-31T05:34:16;96491.09;;;24.45
50206;BMP280;36098;48.390;10.856;2022-10-31T05:36:42;96493.19;;;24.48
50206;BMP280;36098;48.390;10.856;2022-10-31T05:39:07;96486.88;;;24.49
50206;BMP280;36098;48.390;10.856;2022-10-31T05:41:32;96492.19;;;24.39
50206;BMP280;36098;48.390;10.856;2022-10-31T05:43:57;96488.44;;;24.50
50206;BMP280;36098;48.390;10.856;2022-10-31T05:46:23;96491.63;;;24.57
50206;BMP280;36098;48.390;10.856;2022-10-31T05:48:48;96492.16;;;24.59
50206;BMP280;36098;48.390;10.856;2022-10-31T05:51:13;96491.38;;;24.54
50206;BMP280;36098;48.390;10.856;2022-10-31T05:53:39;96483.72;;;24.52
50206;BMP280;36098;48.390;10.856;2022-10-31T05:56:04;96488.44;;;24.50
50206;BMP280;36098;48.390;10.856;2022-10-31T05:58:29;96494.78;;;24.49
50206;BMP280;36098;48.390;10.856;2022-10-31T06:00:55;96491.63;;;24.52
50206;BMP280;36098;48.390;10.856;2022-10-31T06:03:20;96488.22;;;24.52
50206;BMP280;36098;48.390;10.856;2022-10-31T06:05:45;96494.78;;;24.49
50206;BMP280;36098;48.390;10.856;2022-10-31T06:08:10;96498.78;;;24.47
50206;BMP280;36098;48.390;10.856;2022-10-31T06:10:36;96502.19;;;24.47
50206;BMP280;36098;48.390;10.856;2022-10-31T06:13:01;96497.69;;;24.43
50206;BMP280;36098;48.390;10.856;2022-10-31T06:15:26;96501.91;;;24.44
50206;BMP280;36098;48.390;10.856;2022-10-31T06:18:05;96505.88;;;24.46
50206;BMP280;36098;48.390;10.856;2022-10-31T06:20:31;96500.09;;;24.44
50206;BMP280;36098;48.390;10.856;2022-10-31T06:22:57;96499.28;;;24.44
50206;BMP280;36098;48.390;10.856;2022-10-31T06:25:22;96492.16;;;24.44
50206;BMP280;36098;48.390;10.856;2022-10-31T06:27:48;96496.66;;;24.39
50206;BMP280;36098;48.390;10.856;2022-10-31T06:30:13;96491.16;;;24.35
50206;BMP280;36098;48.390;10.856;2022-10-31T06:32:39;96490.59;;;24.33
50206;BMP280;36098;48.390;10.856;2022-10-31T06:35:04;96494.53;;;24.41
50206;BMP280;36098;48.390;10.856;2022-10-31T06:37:30;96490.28;;;24.45
50206;BMP280;36098;48.390;10.856;2022-10-31T06:39:55;96482.63;;;24.48
50206;BMP280;36098;48.390;10.856;2022-10-31T06:42:20;96494.53;;;24.51
50206;BMP280;36098;48.390;10.856;2022-10-31T06:44:45;96497.41;;;24.49
50206;BMP280;36098;48.390;10.856;2022-10-31T06:47:11;96490.59;;;24.43
50206;BMP280;36098;48.390;10.856;2022-10-31T06:49:36;96494.81;;;24.39
50206;BMP280;36098;48.390;10.856;2022-10-31T06:52:02;96488.75;;;24.39
50206;BMP280;36098;48.390;10.856;2022-10-31T06:54:27;96492.16;;;24.34
50206;BMP280;36098;48.390;10.856;2022-10-31T06:56:52;96495.06;;;24.38
50206;BMP280;36098;48.390;10.856;2022-10-31T06:59:18;96495.34;;;24.41
50206;BMP280;36098;48.390;10.856;2022-10-31T07:01:43;96489.53;;;24.34
50206;BMP280;36098;48.390;10.856;2022-10-31T07:04:10;96496.41;;;24.35
50206;BMP280;36098;48.390;10.856;2022-10-31T07:06:35;96499.06;;;24.35
50206;BMP280;36098;48.390;10.856;2022-10-31T07:09:00;96500.09;;;24.34
50206;BMP280;36098;48.390;10.856;2022-10-31T07:11:26;96499.31;;;24.24
50206;BMP280;36098;48.390;10.856;2022-10-31T07:13:51;96511.47;;;24.20
50206;BMP280;36098;48.390;10.856;2022-10-31T07:16:16;96504.31;;;24.30
50206;BMP280;36098;48.390;10.856;2022-10-31T07:18:41;96507.78;;;24.26
50206;BMP280;36098;48.390;10.856;2022-10-31T07:21:07;96506.22;;;24.10
50206;BMP280;36098;48.390;10.856;2022-10-31T07:23:32;96510.16;;;24.07
50206;BMP280;36098;48.390;10.856;2022-10-31T07:25:58;96513.34;;;24.04
50206;BMP280;36098;48.390;10.856;2022-10-31T07:28:25;96514.41;;;24.03
50206;BMP280;36098;48.390;10.856;2022-10-31T07:30:52;96512.28;;;24.05
50206;BMP280;36098;48.390;10.856;2022-10-31T07:33:18;96510.16;;;24.07
50206;BMP280;36098;48.390;10.856;2022-10-31T07:35:43;96507.00;;;23.95
50206;BMP280;36098;48.390;10.856;2022-10-31T07:38:10;96511.22;;;24.01
50206;BMP280;36098;48.390;10.856;2022-10-31T07:40:35;96507.53;;;24.17
50206;BMP280;36098;48.390;10.856;2022-10-31T07:43:02;96509.06;;;24.33
50206;BMP280;36098;48.390;10.856;2022-10-31T07:45:27;96509.06;;;24.33
50206;BMP280;36098;48.390;10.856;2022-10-31T07:47:53;96508.56;;;24.36
50206;BMP280;36098;48.390;10.856;2022-10-31T07:50:21;96500.34;;;24.48
50206;BMP280;36098;48.390;10.856;2022-10-31T07:52:47;96500.84;;;24.60
50206;BMP280;36098;48.390;10.856;2022-10-31T07:55:13;96505.34;;;24.64
50206;BMP280;36098;48.390;10.856;2022-10-31T07:57:39;96502.19;;;24.62
50206;BMP280;36098;48.390;10.856;2022-10-31T08:00:06;96501.09;;;24.68
50206;BMP280;36098;48.390;10.856;2022-10-31T08:02:31;96503.72;;;24.68
50206;BMP280;36098;48.390;10.856;2022-10-31T08:04:57;96495.81;;;24.68
50206;BMP280;36098;48.390;10.856;2022-10-31T08:07:22;96491.63;;;24.57
50206;BMP280;36098;48.390;10.856;2022-10-31T08:09:47;96497.69;;;24.43
50206;BMP280;36098;48.390;10.856;2022-10-31T08:12:12;96501.13;;;24.43
50206;BMP280;36098;48.390;10.856;2022-10-31T08:14:38;96500.66;;;24.21
50206;BMP280;36098;48.390;10.856;2022-10-31T08:17:03;96497.75;;;24.13
50206;BMP280;36098;48.390;10.856;2022-10-31T08:19:28;96499.34;;;24.19
50206;BMP280;36098;48.390;10.856;2022-10-31T08:21:54;96501.97;;;24.19
50206;BMP280;36098;48.390;10.856;2022-10-31T08:24:20;96496.44;;;24.15
50206;BMP280;36098;48.390;10.856;2022-10-31T08:26:46;96496.19;;;24.12
50206;BMP280;36098;48.390;10.856;2022-10-31T08:29:11;96494.84;;;24.14
50206;BMP280;36098;48.390;10.856;2022-10-31T08:31:36;96493.53;;;24.17
50206;BMP280;36098;48.390;10.856;2022-10-31T08:34:01;96498.56;;;24.18
50206;BMP280;36098;48.390;10.856;2022-10-31T08:36:28;96484.03;;;24.26
50206;BMP280;36098;48.390;10.856;2022-10-31T08:38:53;96490.88;;;24.32
50206;BMP280;36098;48.390;10.856;2022-10-31T08:41:19;96480.84;;;24.24
50206;BMP280;36098;48.390;10.856;2022-10-31T08:43:44;96472.16;;;24.18
50206;BMP280;36098;48.390;10.856;2022-10-31T08:46:10;96479.03;;;24.19
50206;BMP280;36098;48.390;10.856;2022-10-31T08:48:35;96476.94;;;24.16
50206;BMP280;36098;48.390;10.856;2022-10-31T08:51:00;96473.22;;;24.22
50206;BMP280;36098;48.390;10.856;2022-10-31T08:53:26;96474.00;;;24.28
50206;BMP280;36098;48.390;10.856;2022-10-31T08:55:54;96462.09;;;24.40
50206;BMP280;36098;48.390;10.856;2022-10-31T08:58:20;96481.09;;;24.32
50206;BMP280;36098;48.390;10.856;2022-10-31T09:00:48;96467.59;;;24.49
50206;BMP280;36098;48.390;10.856;2022-10-31T09:03:23;96464.94;;;24.59
50206;BMP280;36098;48.390;10.856;2022-10-31T09:05:49;96467.81;;;24.67
50206;BMP280;36098;48.390;10.856;2022-10-31T09:08:15;96461.50;;;24.63
50206;BMP280;36098;48.390;10.856;2022-10-31T09:10:41;96461.22;;;24.70
50206;BMP280;36098;48.390;10.856;2022-10-31T09:13:15;96461.78;;;24.67
50206;BMP280;36098;48.390;10.856;2022-10-31T09:15:43;96455.16;;;24.69
50206;BMP280;36098;48.390;10.856;2022-10-31T09:18:12;96450.91;;;24.73
50206;BMP280;36098;48.390;10.856;2022-10-31T09:20:39;96448.81;;;24.75
50206;BMP280;36098;48.390;10.856;2022-10-31T09:23:19;96445.63;;;24.78
50206;BMP280;36098;48.390;10.856;2022-10-31T09:25:47;96442.94;;;24.83
50206;BMP280;36098;48.390;10.856;2022-10-31T09:28:15;96431.06;;;24.86
50206;BMP280;36098;48.390;10.856;2022-10-31T09:30:41;96423.88;;;24.91
50206;BMP280;36098;48.390;10.856;2022-10-31T09:33:10;96429.16;;;24.96
50206;BMP280;36098;48.390;10.856;2022-10-31T09:35:36;96424.09;;;25.00
50206;BMP280;36098;48.390;10.856;2022-10-31T09:38:07;96427.25;;;25.02
50206;BMP280;36098;48.390;10.856;2022-10-31T09:45:56;96416.88;;;25.10
50206;BMP280;36098;48.390;10.856;2022-10-31T09:48:37;96424.84;;;25.05
50206;BMP280;36098;48.390;10.856;2022-10-31T09:51:29;96422.47;;;25.09
50206;BMP280;36098;48.390;10.856;2022-10-31T09:54:06;96427.53;;;25.00
50206;BMP280;36098;48.390;10.856;2022-10-31T09:56:34;96418.78;;;25.05
50206;BMP280;36098;48.390;10.856;2022-10-31T09:59:01;96420.38;;;25.01
50206;BMP280;36098;48.390;10.856;2022-10-31T10:01:33;96413.03;;;24.93
50206;BMP280;36098;48.390;10.856;2022-10-31T10:04:10;96409.84;;;24.96
50206;BMP280;36098;48.390;10.856;2022-10-31T10:06:44;96413.88;;;24.83
50206;BMP280;36098;48.390;10.856;2022-10-31T10:09:11;96408.06;;;24.86
50206;BMP280;36098;48.390;10.856;2022-10-31T10:19:52;96399.56;;;24.94
50206;BMP280;36098;48.390;10.856;2022-10-31T10:27:58;96400.31;;;25.05
50206;BMP280;36098;48.390;10.856;2022-10-31T10:30:56;96402.34;;;25.13
50206;BMP280;36098;48.390;10.856;2022-10-31T10:33:27;96402.09;;;25.19
50206;BMP280;36098;48.390;10.856;2022-10-31T10:35:58;96399.13;;;25.25
50206;BMP280;36098;48.390;10.856;2022-10-31T10:38:37;96393.56;;;25.27
50206;BMP280;36098;48.390;10.856;2022-10-31T10:41:09;96390.34;;;25.30
50206;BMP280;36098;48.390;10.856;2022-10-31T10:43:37;96395.97;;;25.23
50206;BMP280;36098;48.390;10.856;2022-10-31T10:49:18;96387.72;;;25.30
50206;BMP280;36098;48.390;10.856;2022-10-31T10:57:06;96380.84;;;25.29
50206;BMP280;36098;48.390;10.856;2022-10-31T10:59:34;96384.25;;;25.34
50206;BMP280;36098;48.390;10.856;2022-10-31T11:01:59;96373.91;;;25.38
50206;BMP280;36098;48.390;10.856;2022-10-31T11:04:31;96371.78;;;25.40
50206;BMP280;36098;48.390;10.856;2022-10-31T11:07:02;96361.78;;;25.37
50206;BMP280;36098;48.390;10.856;2022-10-31T11:09:28;96364.13;;;25.38
50206;BMP280;36098;48.390;10.856;2022-10-31T11:11:54;96365.94;;;25.43
50206;BMP280;36098;48.390;10.856;2022-10-31T11:14:20;96358.56;;;25.40
50206;BMP280;36098;48.390;10.856;2022-10-31T11:16:49;96352.22;;;25.41
50206;BMP280;36098;48.390;10.856;2022-10-31T11:19:19;96348.25;;;25.38
50206;BMP280;36098;48.390;10.856;2022-10-31T11:21:45;96355.22;;;25.29
50206;BMP280;36098;48.390;10.856;2022-10-31T11:26:37;96350.75;;;25.25
50206;BMP280;36098;48.390;10.856;2022-10-31T11:29:03;96357.91;;;25.24
50206;BMP280;36098;48.390;10.856;2022-10-31T11:31:31;96354.50;;;25.19
50206;BMP280;36098;48.390;10.856;2022-10-31T11:34:00;96352.88;;;25.23
50206;BMP280;36098;48.390;10.856;2022-10-31T11:36:32;96352.06;;;25.27
50206;BMP280;36098;48.390;10.856;2022-10-31T11:38:59;96351.22;;;25.32
50206;BMP280;36098;48.390;10.856;2022-10-31T11:41:34;96352.28;;;25.31
50206;BMP280;36098;48.390;10.856;2022-10-31T11:44:04;96355.44;;;25.33
50206;BMP280;36098;48.390;10.856;2022-10-31T11:46:46;96348.81;;;25.35
50206;BMP280;36098;48.390;10.856;2022-10-31T11:49:37;96340.38;;;25.33
50206;BMP280;36098;48.390;10.856;2022-10-31T11:52:24;96348.56;;;25.37
50206;BMP280;36098;48.390;10.856;2022-10-31T11:57:48;96330.00;;;25.42
50206;BMP280;36098;48.390;10.856;2022-10-31T12:00:26;96329.56;;;25.30
50206;BMP280;36098;48.390;10.856;2022-10-31T12:03:11;96323.25;;;25.26
50206;BMP280;36098;48.390;10.856;2022-10-31T12:05:38;96325.47;;;25.14
50206;BMP280;36098;48.390;10.856;2022-10-31T12:08:04;96319.63;;;25.17
50206;BMP280;36098;48.390;10.856;2022-10-31T12:10:39;96318.03;;;25.21
50206;BMP280;36098;48.390;10.856;2022-10-31T12:15:36;96317.78;;;25.13
50206;BMP280;36098;48.390;10.856;2022-10-31T12:21:19;96309.06;;;25.12
50206;BMP280;36098;48.390;10.856;2022-10-31T12:29:07;96297.66;;;25.16
50206;BMP280;36098;48.390;10.856;2022-10-31T12:37:31;96286.56;;;25.19
50206;BMP280;36098;48.390;10.856;2022-10-31T12:40:21;96285.53;;;25.15
50206;BMP280;36098;48.390;10.856;2022-10-31T12:43:08;96281.88;;;25.12
50206;BMP280;36098;48.390;10.856;2022-10-31T12:45:59;96283.38;;;25.22
50206;BMP280;36098;48.390;10.856;2022-10-31T12:58:46;96245.94;;;25.67
50206;BMP280;36098;48.390;10.856;2022-10-31T13:01:34;96254.13;;;25.66
50206;BMP280;36098;48.390;10.856;2022-10-31T13:04:03;96246.66;;;25.96
50206;BMP280;36098;48.390;10.856;2022-10-31T13:06:38;96244.50;;;26.22
50206;BMP280;36098;48.390;10.856;2022-10-31T13:09:08;96241.28;;;26.25
50206;BMP280;36098;48.390;10.856;2022-10-31T13:11:39;96239.47;;;26.20
50206;BMP280;36098;48.390;10.856;2022-10-31T13:14:20;96243.50;;;26.18
50206;BMP280;36098;48.390;10.856;2022-10-31T13:16:48;96231.59;;;26.15
50206;BMP280;36098;48.390;10.856;2022-10-31T13:19:22;96231.94;;;26.09
50206;BMP280;36098;48.390;10.856;2022-10-31T13:21:59;96229.38;;;26.04
50206;BMP280;36098;48.390;10.856;2022-10-31T13:24:36;96226.13;;;25.88
50206;BMP280;36098;48.390;10.856;2022-10-31T13:27:13;96230.91;;;25.63
50206;BMP280;36098;48.390;10.856;2022-10-31T13:29:44;96222.53;;;25.56
50206;BMP280;36098;48.390;10.856;2022-10-31T13:32:12;96216.84;;;25.67
50206;BMP280;36098;48.390;10.856;2022-10-31T13:34:41;96222.81;;;25.78
50206;BMP280;36098;48.390;10.856;2022-10-31T13:37:35;96215.31;;;25.85
50206;BMP280;36098;48.390;10.856;2022-10-31T13:40:12;96219.03;;;25.84
50206;BMP280;36098;48.390;10.856;2022-10-31T13:45:25;96205.81;;;25.84
50206;BMP280;36098;48.390;10.856;2022-10-31T13:48:17;96205.34;;;26.00
50206;BMP280;36098;48.390;10.856;2022-10-31T13:50:56;96201.34;;;26.03
50206;BMP280;36098;48.390;10.856;2022-10-31T13:53:34;96203.41;;;25.87
50206;BMP280;36098;48.390;10.856;2022-10-31T13:58:35;96193.59;;;25.88
50206;BMP280;36098;48.390;10.856;2022-10-31T14:03:36;96192.06;;;25.82
50206;BMP280;36098;48.390;10.856;2022-10-31T14:06:02;96195.13;;;25.94
50206;BMP280;36098;48.390;10.856;2022-10-31T14:08:31;96190.75;;;26.03
50206;BMP280;36098;48.390;10.856;2022-10-31T14:10:58;96199.13;;;26.10
50206;BMP280;36098;48.390;10.856;2022-10-31T14:13:28;96192.31;;;26.04
50206;BMP280;36098;48.390;10.856;2022-10-31T14:16:43;96200.56;;;26.02
50206;BMP280;36098;48.390;10.856;2022-10-31T14:18:58;96191.53;;;25.85
50206;BMP280;36098;48.390;10.856;2022-10-31T14:23:50;96180.66;;;25.63
50206;BMP280;36098;48.390;10.856;2022-10-31T14:31:41;96174.03;;;25.65
50206;BMP280;36098;48.390;10.856;2022-10-31T14:34:28;96171.09;;;25.67
50206;BMP280;36098;48.390;10.856;2022-10-31T14:42:40;96162.94;;;25.40
50206;BMP280;36098;48.390;10.856;2022-10-31T14:50:41;96171.66;;;25.12
50206;BMP280;36098;48.390;10.856;2022-10-31T14:53:12;96168.47;;;25.20
50206;BMP280;36098;48.390;10.856;2022-10-31T14:55:44;96155.91;;;25.30
50206;BMP280;36098;48.390;10.856;2022-10-31T14:58:17;96148.72;;;25.36
50206;BMP280;36098;48.390;10.856;2022-10-31T15:00:43;96160.06;;;25.36
50206;BMP280;36098;48.390;10.856;2022-10-31T15:03:17;96158.22;;;25.37
50206;BMP280;36098;48.390;10.856;2022-10-31T15:05:51;96158.22;;;25.37
50206;BMP280;36098;48.390;10.856;2022-10-31T15:08:37;96157.84;;;25.48
50206;BMP280;36098;48.390;10.856;2022-10-31T15:11:12;96159.06;;;25.56
50206;BMP280;36098;48.390;10.856;2022-10-31T15:13:45;96149.06;;;25.53
50206;BMP280;36098;48.390;10.856;2022-10-31T15:16:11;96142.53;;;25.45
50206;BMP280;36098;48.390;10.856;2022-10-31T15:18:54;96133.41;;;25.33
50206;BMP280;36098;48.390;10.856;2022-10-31T15:21:22;96134.78;;;25.30
50206;BMP280;36098;48.390;10.856;2022-10-31T15:23:52;96139.56;;;25.00
50206;BMP280;36098;48.390;10.856;2022-10-31T15:26:19;96141.09;;;25.06
50206;BMP280;36098;48.390;10.856;2022-10-31T15:28:46;96136.59;;;25.07
50206;BMP280;36098;48.390;10.856;2022-10-31T15:31:17;96130.44;;;25.16
50206;BMP280;36098;48.390;10.856;2022-10-31T15:33:46;96128.88;;;25.10
50206;BMP280;36098;48.390;10.856;2022-10-31T15:36:23;96138.44;;;25.06
50206;BMP280;36098;48.390;10.856;2022-10-31T15:38:49;96131.34;;;25.02
50206;BMP280;36098;48.390;10.856;2022-10-31T15:41:35;96132.78;;;24.89
50206;BMP280;36098;48.390;10.856;2022-10-31T15:44:14;96143.88;;;24.91
50206;BMP280;36098;48.390;10.856;2022-10-31T15:46:41;96142.28;;;24.95
50206;BMP280;36098;48.390;10.856;2022-10-31T15:49:26;96140.50;;;24.86